Time;durP1;ratioP1;P1;durP2;ratioP2;P2;SDS_P1;SDS_P2;PMS_P1;PMS_P2;Temp;Humidity;BMP_temperature;BMP_pressure;BME280_temperature;BME280_humidity;BME280_pressure;Samples;Min_cycle;Max_cycle;Signal;HPM_P1;HPM_P2
2023/06/18 00:00:11;;;;;;;19.80;18.30;;;15.20;99.90;;;;;;5001774;28;21002;-58
2023/06/18 00:02:39;;;;;;;19.67;18.13;;;15.20;99.90;;;;;;5000023;28;20483;-58
2023/06/18 00:05:08;;;;;;;20.13;18.53;;;15.20;99.90;;;;;;5000218;28;20577;-58
2023/06/18 00:07:36;;;;;;;21.20;19.40;;;15.20;99.90;;;;;;5009259;28;20549;-59
2023/06/18 00:10:06;;;;;;;19.23;17.73;;;15.20;99.90;;;;;;5021727;28;20981;-58
2023/06/18 00:12:34;;;;;;;19.20;17.70;;;15.20;99.90;;;;;;4999308;28;20580;-57
2023/06/18 00:15:02;;;;;;;20.40;18.80;;;15.10;99.90;;;;;;4997163;28;20543;-56
2023/06/18 00:17:31;;;;;;;19.23;17.80;;;15.10;99.90;;;;;;4998235;28;20475;-56
2023/06/18 00:19:59;;;;;;;20.27;18.67;;;15.10;99.90;;;;;;5001325;28;20528;-57
2023/06/18 00:22:28;;;;;;;20.63;19.00;;;15.10;99.90;;;;;;4998956;28;20567;-57
2023/06/18 00:24:56;;;;;;;20.03;18.60;;;15.00;99.90;;;;;;5001713;28;20495;-56
2023/06/18 00:27:25;;;;;;;21.00;19.20;;;15.00;99.90;;;;;;4995198;28;20469;-57
2023/06/18 00:29:53;;;;;;;20.60;18.90;;;15.00;99.90;;;;;;5000122;28;20465;-57
2023/06/18 00:32:21;;;;;;;20.53;18.93;;;15.00;99.90;;;;;;4998102;28;20528;-57
2023/06/18 00:34:53;;;;;;;21.60;19.90;;;15.00;99.90;;;;;;4998179;28;20511;-57
2023/06/18 00:37:21;;;;;;;20.40;18.70;;;15.00;99.90;;;;;;5000708;28;20469;-57
2023/06/18 00:39:50;;;;;;;20.03;18.50;;;14.90;99.90;;;;;;4997733;28;20468;-57
2023/06/18 00:42:18;;;;;;;19.60;18.00;;;14.90;99.90;;;;;;4997975;28;20859;-57
2023/06/18 00:44:48;;;;;;;20.97;19.27;;;14.90;99.90;;;;;;4995467;28;21001;-57
2023/06/18 00:47:19;;;;;;;20.40;18.70;;;14.90;99.90;;;;;;4998975;28;20558;-57
2023/06/18 00:49:48;;;;;;;20.53;18.87;;;14.90;99.90;;;;;;5000777;28;21263;-57
2023/06/18 00:52:16;;;;;;;20.87;19.10;;;14.80;99.90;;;;;;4996772;28;21243;-57
2023/06/18 00:54:45;;;;;;;20.57;18.80;;;14.80;99.90;;;;;;4998422;28;20837;-57
2023/06/18 00:57:17;;;;;;;21.40;19.80;;;14.80;99.90;;;;;;4996136;28;20465;-57
2023/06/18 00:59:46;;;;;;;21.57;19.80;;;14.80;99.90;;;;;;4998888;28;20468;-57
2023/06/18 01:02:23;;;;;;;20.83;19.23;;;14.80;99.90;;;;;;4999138;28;20837;-57
2023/06/18 01:04:56;;;;;;;20.77;19.23;;;14.80;99.90;;;;;;4999128;28;20496;-57
2023/06/18 01:07:26;;;;;;;21.77;20.13;;;14.70;99.90;;;;;;4999540;28;20475;-57
2023/06/18 01:10:05;;;;;;;20.77;19.17;;;14.70;99.90;;;;;;4999986;28;20554;-57
2023/06/18 01:12:34;;;;;;;21.60;20.00;;;14.70;99.90;;;;;;4996317;28;20583;-57
2023/06/18 01:15:02;;;;;;;21.70;19.90;;;14.70;99.90;;;;;;4999014;28;20520;-57
2023/06/18 01:17:35;;;;;;;21.50;19.70;;;14.70;99.90;;;;;;5001344;28;20465;-57
2023/06/18 01:20:09;;;;;;;20.73;19.13;;;14.60;99.90;;;;;;4999061;28;20472;-57
2023/06/18 01:22:42;;;;;;;22.77;21.07;;;14.60;99.90;;;;;;4997731;28;20501;-57
2023/06/18 01:25:11;;;;;;;21.20;19.60;;;14.60;99.90;;;;;;4999491;28;20554;-56
2023/06/18 01:27:42;;;;;;;21.47;19.90;;;14.60;99.90;;;;;;4997731;28;20829;-57
2023/06/18 01:30:12;;;;;;;23.03;21.13;;;14.60;99.90;;;;;;4999513;28;20487;-57
2023/06/18 01:32:42;;;;;;;22.50;20.53;;;14.60;99.90;;;;;;4999338;28;20492;-57
2023/06/18 01:35:14;;;;;;;21.70;20.00;;;14.60;99.90;;;;;;5000398;28;20586;-57
2023/06/18 01:37:53;;;;;;;21.53;19.87;;;14.50;99.90;;;;;;4998744;28;20596;-57
2023/06/18 01:40:32;;;;;;;21.80;20.10;;;14.50;99.90;;;;;;5000268;28;20595;-57
2023/06/18 01:43:08;;;;;;;22.20;20.40;;;14.50;99.90;;;;;;4995910;28;21038;-57
2023/06/18 01:45:42;;;;;;;21.07;19.47;;;14.50;99.90;;;;;;4994207;28;20865;-57
2023/06/18 01:48:13;;;;;;;21.17;19.53;;;14.40;99.90;;;;;;4999516;28;20549;-57
2023/06/18 01:50:44;;;;;;;23.00;21.20;;;14.40;99.90;;;;;;4995235;28;20843;-57
2023/06/18 01:53:16;;;;;;;20.70;19.10;;;14.40;99.90;;;;;;4998847;28;20467;-57
2023/06/18 01:55:45;;;;;;;21.47;19.67;;;14.30;99.90;;;;;;4994783;28;20501;-57
2023/06/18 01:58:14;;;;;;;20.70;19.00;;;14.30;99.90;;;;;;4996107;28;20503;-57
2023/06/18 02:00:42;;;;;;;21.70;19.90;;;14.30;99.90;;;;;;4997925;28;20493;-57
2023/06/18 02:03:12;;;;;;;22.20;20.40;;;14.30;99.90;;;;;;4998053;28;20491;-57
2023/06/18 02:05:40;;;;;;;22.43;20.73;;;14.30;99.90;;;;;;4999765;28;20566;-57
2023/06/18 02:08:08;;;;;;;21.80;20.00;;;14.30;99.90;;;;;;4998377;28;20897;-57
2023/06/18 02:10:36;;;;;;;23.20;21.27;;;14.20;99.90;;;;;;4999612;28;20915;-57
2023/06/18 02:13:04;;;;;;;21.57;19.87;;;14.20;99.90;;;;;;4995283;28;20935;-56
2023/06/18 02:15:32;;;;;;;22.40;20.50;;;14.20;99.90;;;;;;4998869;28;20586;-57
2023/06/18 02:18:00;;;;;;;23.17;21.20;;;14.10;99.90;;;;;;4998209;28;20501;-57
2023/06/18 02:20:30;;;;;;;21.63;19.93;;;14.10;99.90;;;;;;5000097;28;20488;-57
2023/06/18 02:22:58;;;;;;;22.50;20.60;;;14.10;99.90;;;;;;4998369;28;20964;-57
2023/06/18 02:25:29;;;;;;;21.50;19.70;;;14.10;99.90;;;;;;5019094;28;20584;-61
2023/06/18 02:27:58;;;;;;;23.03;21.27;;;14.10;99.90;;;;;;4999045;28;20477;-57
2023/06/18 02:30:26;;;;;;;21.60;19.90;;;14.10;99.90;;;;;;4999548;28;21086;-57
2023/06/18 02:32:54;;;;;;;21.23;19.43;;;14.10;99.90;;;;;;5000330;28;20894;-57
2023/06/18 02:35:22;;;;;;;21.93;20.20;;;14.00;99.90;;;;;;4998637;28;20484;-57
2023/06/18 02:37:51;;;;;;;21.60;19.70;;;14.00;99.90;;;;;;5001238;28;20575;-57
2023/06/18 02:40:19;;;;;;;22.07;20.37;;;14.00;99.90;;;;;;5000331;28;20468;-57
2023/06/18 02:42:48;;;;;;;21.97;20.27;;;14.00;99.90;;;;;;5001836;28;20493;-57
2023/06/18 02:45:17;;;;;;;22.00;20.10;;;14.00;99.90;;;;;;4998950;28;20579;-57
2023/06/18 02:47:45;;;;;;;20.77;19.07;;;14.00;99.90;;;;;;5002428;28;21379;-57
2023/06/18 02:50:14;;;;;;;21.40;19.70;;;14.00;99.90;;;;;;5002929;28;20472;-57
2023/06/18 02:52:43;;;;;;;20.50;18.80;;;14.00;99.90;;;;;;4998093;28;21039;-57
2023/06/18 02:55:13;;;;;;;21.77;19.93;;;13.90;99.90;;;;;;5001830;28;20495;-57
2023/06/18 02:57:42;;;;;;;20.73;19.07;;;13.90;99.90;;;;;;4999184;28;20580;-57
2023/06/18 03:00:12;;;;;;;22.33;20.37;;;13.90;99.90;;;;;;5001491;28;20548;-57
2023/06/18 03:02:42;;;;;;;21.17;19.20;;;13.90;99.90;;;;;;5000565;28;20512;-57
2023/06/18 03:05:10;;;;;;;20.03;18.33;;;13.90;99.90;;;;;;5001259;28;20501;-57
2023/06/18 03:07:38;;;;;;;19.47;18.00;;;13.90;99.90;;;;;;4998638;28;20537;-57
2023/06/18 03:10:07;;;;;;;20.30;18.70;;;13.90;99.90;;;;;;5001193;28;20479;-57
2023/06/18 03:12:37;;;;;;;19.30;17.77;;;13.90;99.90;;;;;;4997842;28;20963;-57
2023/06/18 03:15:06;;;;;;;20.23;18.60;;;13.90;99.90;;;;;;4998075;28;20494;-56
2023/06/18 03:17:34;;;;;;;19.73;18.27;;;13.90;99.90;;;;;;5001979;28;20572;-57
2023/06/18 03:20:06;;;;;;;19.73;18.17;;;13.90;99.90;;;;;;5000576;28;20527;-57
2023/06/18 03:22:34;;;;;;;20.53;18.80;;;13.90;99.90;;;;;;4999919;28;20480;-57
2023/06/18 03:25:02;;;;;;;20.63;18.73;;;13.80;99.90;;;;;;4993794;28;20866;-57
2023/06/18 03:27:31;;;;;;;19.60;17.83;;;13.80;99.90;;;;;;4999842;28;20497;-57
2023/06/18 03:30:00;;;;;;;19.33;17.90;;;13.80;99.90;;;;;;5000369;28;21025;-56
2023/06/18 03:32:28;;;;;;;19.87;18.20;;;13.80;99.90;;;;;;4999590;28;20508;-57
2023/06/18 03:34:57;;;;;;;19.27;17.67;;;13.80;99.90;;;;;;4997507;28;20488;-57
2023/06/18 03:37:25;;;;;;;20.37;18.70;;;13.80;99.90;;;;;;4999331;28;20527;-57
2023/06/18 03:39:53;;;;;;;20.40;18.80;;;13.90;99.90;;;;;;4997702;28;20577;-57
2023/06/18 03:42:21;;;;;;;19.17;17.60;;;13.80;99.90;;;;;;4999883;28;21238;-57
2023/06/18 03:44:49;;;;;;;19.20;17.60;;;13.80;99.90;;;;;;4995985;28;20501;-57
2023/06/18 03:47:18;;;;;;;18.47;16.97;;;13.80;99.90;;;;;;5003045;28;20517;-57
2023/06/18 03:49:46;;;;;;;17.93;16.43;;;13.80;99.90;;;;;;4998730;28;20856;-57
2023/06/18 03:52:14;;;;;;;19.70;18.10;;;13.90;99.90;;;;;;4999265;28;20857;-57
2023/06/18 03:54:42;;;;;;;18.60;17.10;;;13.90;99.90;;;;;;5002891;28;20576;-56
2023/06/18 03:57:12;;;;;;;18.73;17.13;;;13.90;99.90;;;;;;5001349;28;20506;-57
2023/06/18 03:59:40;;;;;;;19.50;18.00;;;13.90;99.90;;;;;;4998150;28;20564;-57
2023/06/18 04:02:08;;;;;;;18.40;17.00;;;14.00;99.90;;;;;;4999403;28;20559;-57
2023/06/18 04:04:37;;;;;;;19.53;17.83;;;14.00;99.90;;;;;;5001978;28;20500;-57
2023/06/18 04:07:06;;;;;;;18.63;17.13;;;14.00;99.90;;;;;;4997846;28;20511;-57
2023/06/18 04:09:34;;;;;;;19.43;17.93;;;14.00;99.90;;;;;;5001641;28;20480;-57
2023/06/18 04:12:02;;;;;;;19.03;17.63;;;14.10;99.90;;;;;;4997957;28;20516;-57
2023/06/18 04:14:29;;;;;;;18.37;16.97;;;14.10;99.90;;;;;;4996621;28;21044;-57
2023/06/18 04:16:57;;;;;;;18.17;16.70;;;14.10;99.90;;;;;;4997801;28;20472;-57
2023/06/18 04:19:25;;;;;;;19.30;17.53;;;14.20;99.90;;;;;;4999682;28;20843;-57
2023/06/18 04:21:55;;;;;;;18.73;17.23;;;14.30;99.90;;;;;;4999643;28;20489;-57
2023/06/18 04:24:23;;;;;;;18.27;16.77;;;14.30;99.90;;;;;;4997604;28;20580;-57
2023/06/18 04:26:51;;;;;;;17.93;16.53;;;14.30;99.90;;;;;;4998591;28;20584;-57
2023/06/18 04:29:19;;;;;;;19.20;17.50;;;14.40;99.90;;;;;;4997036;28;20467;-57
2023/06/18 04:31:47;;;;;;;18.93;17.10;;;14.40;99.90;;;;;;4998608;28;20496;-57
2023/06/18 04:34:15;;;;;;;18.67;17.17;;;14.40;99.90;;;;;;5000009;28;20527;-57
2023/06/18 04:36:44;;;;;;;19.73;17.93;;;14.50;99.90;;;;;;4996312;28;20588;-57
2023/06/18 04:39:13;;;;;;;20.37;18.57;;;14.60;99.90;;;;;;5021314;28;20491;-57
2023/06/18 04:41:41;;;;;;;20.40;18.70;;;14.60;99.90;;;;;;5008094;28;20513;-57
2023/06/18 04:44:12;;;;;;;19.97;18.27;;;14.70;99.90;;;;;;5000463;28;20492;-57
2023/06/18 04:46:41;;;;;;;19.93;18.23;;;14.70;99.90;;;;;;4998600;28;21287;-57
2023/06/18 04:49:09;;;;;;;20.13;18.57;;;14.80;99.90;;;;;;5000166;28;20591;-57
2023/06/18 04:51:39;;;;;;;19.97;18.37;;;14.80;99.90;;;;;;4996319;28;21061;-57
2023/06/18 04:54:07;;;;;;;21.53;19.73;;;14.90;99.90;;;;;;5000158;28;20511;-57
2023/06/18 04:56:36;;;;;;;20.73;19.03;;;14.90;99.90;;;;;;4999036;28;21021;-57
2023/06/18 04:59:04;;;;;;;21.20;19.40;;;15.00;99.90;;;;;;5001596;28;20469;-57
2023/06/18 05:01:32;;;;;;;21.80;20.10;;;15.00;99.90;;;;;;4999607;28;21194;-57
2023/06/18 05:04:00;;;;;;;20.50;18.90;;;15.10;99.90;;;;;;4995676;28;20555;-57
2023/06/18 05:06:28;;;;;;;23.23;21.43;;;15.20;99.90;;;;;;4998106;28;21470;-57
2023/06/18 05:08:56;;;;;;;22.00;20.30;;;15.30;99.90;;;;;;4992971;28;20531;-57
2023/06/18 05:11:24;;;;;;;21.17;19.43;;;15.40;99.90;;;;;;4998164;28;20568;-56
2023/06/18 05:13:54;;;;;;;21.27;19.57;;;15.40;99.90;;;;;;4999121;28;20871;-56
2023/06/18 05:16:22;;;;;;;19.77;18.23;;;15.50;99.90;;;;;;4994839;28;20511;-56
2023/06/18 05:18:50;;;;;;;22.73;20.83;;;15.60;99.90;;;;;;4996391;28;20472;-56
2023/06/18 05:21:17;;;;;;;21.47;19.63;;;15.70;99.90;;;;;;4989012;28;20492;-57
2023/06/18 05:23:46;;;;;;;21.87;20.07;;;15.80;99.90;;;;;;4999881;28;20507;-57
2023/06/18 05:26:14;;;;;;;24.13;22.20;;;15.80;99.90;;;;;;4998018;28;21036;-56
2023/06/18 05:28:42;;;;;;;22.23;20.43;;;15.90;99.90;;;;;;4995866;28;20859;-57
2023/06/18 05:31:12;;;;;;;25.10;22.90;;;16.00;99.90;;;;;;4998519;28;20546;-55
2023/06/18 05:33:40;;;;;;;23.33;21.23;;;16.10;99.90;;;;;;4998823;28;20961;-56
2023/06/18 05:36:08;;;;;;;22.97;21.07;;;16.10;99.90;;;;;;4996219;28;20464;-57
2023/06/18 05:38:36;;;;;;;22.60;20.87;;;16.20;99.90;;;;;;4997854;28;20473;-56
2023/06/18 05:41:04;;;;;;;22.27;20.40;;;16.20;99.90;;;;;;4996558;28;20563;-56
2023/06/18 05:43:31;;;;;;;20.00;18.40;;;16.30;99.90;;;;;;4999279;28;20503;-57
2023/06/18 05:45:59;;;;;;;23.97;21.97;;;16.40;99.90;;;;;;5000668;28;20495;-57
2023/06/18 05:48:29;;;;;;;23.87;21.97;;;16.40;99.90;;;;;;4999745;28;20467;-57
2023/06/18 05:50:57;;;;;;;23.00;21.10;;;16.50;99.90;;;;;;4996563;28;20555;-56
2023/06/18 05:53:26;;;;;;;21.57;19.87;;;16.60;99.90;;;;;;4996018;28;21029;-58
2023/06/18 05:55:54;;;;;;;21.73;19.90;;;16.70;99.90;;;;;;4998062;28;20493;-58
2023/06/18 05:58:22;;;;;;;24.20;22.10;;;16.80;99.90;;;;;;4999302;28;20500;-58
2023/06/18 06:00:52;;;;;;;24.13;22.17;;;16.80;99.90;;;;;;4997209;28;20974;-58
2023/06/18 06:03:20;;;;;;;23.93;21.97;;;16.90;99.90;;;;;;4996249;28;20565;-58
2023/06/18 06:05:49;;;;;;;21.60;19.90;;;17.00;99.90;;;;;;4999325;28;20556;-58
2023/06/18 06:08:17;;;;;;;20.50;18.80;;;17.10;99.90;;;;;;5000334;28;20515;-59
2023/06/18 06:10:45;;;;;;;21.50;19.70;;;17.20;99.90;;;;;;5001221;28;20548;-58
2023/06/18 06:13:14;;;;;;;20.73;19.13;;;17.20;99.90;;;;;;5001388;28;20472;-58
2023/06/18 06:15:42;;;;;;;20.33;18.63;;;17.40;99.90;;;;;;5000277;28;20469;-58
2023/06/18 06:18:10;;;;;;;21.20;19.50;;;17.50;99.90;;;;;;5003336;28;20596;-58
2023/06/18 06:20:38;;;;;;;20.40;18.70;;;17.60;99.90;;;;;;4998295;28;20551;-58
2023/06/18 06:23:07;;;;;;;21.53;19.83;;;17.70;99.90;;;;;;5002125;28;20633;-58
2023/06/18 06:25:35;;;;;;;20.67;18.83;;;17.80;99.90;;;;;;4998499;28;20837;-58
2023/06/18 06:28:03;;;;;;;19.60;17.87;;;17.90;99.90;;;;;;5002659;28;20582;-58
2023/06/18 06:30:31;;;;;;;19.57;17.87;;;18.00;99.90;;;;;;5003237;28;21033;-58
2023/06/18 06:32:59;;;;;;;19.10;17.60;;;18.10;99.90;;;;;;4999617;28;21180;-58
2023/06/18 06:35:28;;;;;;;19.50;17.90;;;18.20;99.90;;;;;;4999205;28;21869;-58
2023/06/18 06:37:56;;;;;;;19.70;18.10;;;18.30;99.90;;;;;;5003542;28;20974;-58
2023/06/18 06:40:26;;;;;;;19.13;17.57;;;18.40;99.90;;;;;;4996598;28;20482;-58
2023/06/18 06:42:54;;;;;;;18.87;17.37;;;18.50;99.90;;;;;;5000802;28;20590;-58
2023/06/18 06:45:21;;;;;;;17.67;16.07;;;18.50;99.90;;;;;;4998358;28;20927;-58
2023/06/18 06:47:49;;;;;;;16.07;14.87;;;18.60;99.90;;;;;;5002850;28;20491;-58
2023/06/18 06:50:17;;;;;;;16.03;14.63;;;18.70;99.90;;;;;;5003465;28;20500;-59
2023/06/18 06:52:45;;;;;;;15.77;14.37;;;18.70;99.90;;;;;;5000423;28;21090;-59
2023/06/18 06:55:13;;;;;;;15.53;14.07;;;18.80;99.90;;;;;;4999809;28;20579;-58
2023/06/18 06:57:43;;;;;;;13.00;11.93;;;18.90;99.90;;;;;;5000543;28;20568;-59
2023/06/18 07:00:13;;;;;;;13.50;12.40;;;19.00;99.90;;;;;;4998782;28;20555;-58
2023/06/18 07:02:41;;;;;;;14.60;13.50;;;19.10;99.90;;;;;;5006984;28;20563;-56
2023/06/18 07:05:10;;;;;;;13.57;12.47;;;19.10;99.90;;;;;;5005488;28;20496;-57
2023/06/18 07:07:40;;;;;;;14.43;13.13;;;19.20;99.90;;;;;;5002771;28;20527;-57
2023/06/18 07:10:08;;;;;;;12.60;11.50;;;19.20;99.90;;;;;;5003379;28;20526;-57
2023/06/18 07:12:36;;;;;;;12.17;11.27;;;19.40;99.90;;;;;;4996192;28;20515;-57
2023/06/18 07:15:07;;;;;;;10.47;9.70;;;19.40;99.90;;;;;;4998631;28;20574;-57
2023/06/18 07:17:35;;;;;;;11.17;10.30;;;19.50;99.90;;;;;;4999965;28;20548;-57
2023/06/18 07:20:03;;;;;;;10.87;10.00;;;19.50;99.90;;;;;;5000408;28;20979;-56
2023/06/18 07:22:31;;;;;;;9.27;8.60;;;19.60;99.90;;;;;;5001443;28;20571;-57
2023/06/18 07:24:59;;;;;;;9.90;9.30;;;19.70;99.90;;;;;;4997612;28;20946;-57
2023/06/18 07:27:27;;;;;;;10.40;9.60;;;19.80;99.90;;;;;;5000759;28;20571;-57
2023/06/18 07:29:56;;;;;;;10.33;9.53;;;19.90;99.90;;;;;;5002358;28;20842;-57
2023/06/18 07:32:25;;;;;;;8.13;7.43;;;20.00;99.90;;;;;;5000027;28;20488;-57
2023/06/18 07:34:53;;;;;;;8.10;7.50;;;20.10;99.90;;;;;;4999804;28;20520;-57
2023/06/18 07:37:21;;;;;;;8.13;7.60;;;20.20;99.90;;;;;;4999336;28;20842;-56
2023/06/18 07:39:49;;;;;;;8.60;8.00;;;20.20;99.90;;;;;;4999507;28;20902;-57
2023/06/18 07:42:17;;;;;;;8.77;8.10;;;20.30;99.90;;;;;;4984812;28;20495;-57
2023/06/18 07:44:46;;;;;;;8.87;8.07;;;20.40;99.90;;;;;;4998685;28;20488;-57
2023/06/18 07:47:14;;;;;;;8.80;8.20;;;20.50;99.90;;;;;;5000928;28;20484;-57
2023/06/18 07:49:43;;;;;;;8.83;8.23;;;20.50;99.90;;;;;;4997677;28;20500;-57
2023/06/18 07:52:11;;;;;;;8.77;8.07;;;20.70;99.90;;;;;;4990800;28;20496;-57
2023/06/18 07:54:39;;;;;;;9.00;8.30;;;20.70;99.90;;;;;;5000311;28;20946;-57
2023/06/18 07:57:07;;;;;;;8.90;8.30;;;20.80;99.90;;;;;;5000981;28;20471;-57
2023/06/18 07:59:35;;;;;;;8.40;7.80;;;20.90;99.90;;;;;;5001603;28;20468;-57
2023/06/18 08:02:03;;;;;;;7.97;7.47;;;21.00;99.90;;;;;;4988164;28;20496;-57
2023/06/18 08:04:31;;;;;;;9.27;8.57;;;21.10;99.90;;;;;;5001115;28;20540;-57
2023/06/18 08:07:01;;;;;;;8.63;8.03;;;21.20;99.90;;;;;;4998536;28;20469;-57
2023/06/18 08:09:29;;;;;;;7.97;7.47;;;21.30;99.90;;;;;;4997254;28;20567;-57
2023/06/18 08:11:57;;;;;;;8.17;7.57;;;21.30;99.90;;;;;;4998100;28;20484;-57
2023/06/18 08:14:28;;;;;;;8.33;7.73;;;21.40;99.90;;;;;;4999964;28;20495;-57
2023/06/18 08:16:56;;;;;;;7.73;7.20;;;21.50;99.90;;;;;;4995849;28;20475;-57
2023/06/18 08:19:24;;;;;;;7.50;6.90;;;21.60;99.90;;;;;;4991594;28;20474;-56
2023/06/18 08:21:52;;;;;;;7.30;6.80;;;21.70;99.90;;;;;;4994320;28;20496;-57
2023/06/18 08:24:22;;;;;;;7.47;6.87;;;21.90;99.90;;;;;;4994595;28;20492;-56
2023/06/18 08:26:50;;;;;;;7.30;6.80;;;22.00;99.90;;;;;;4998213;28;20497;-57
2023/06/18 08:29:19;;;;;;;7.20;6.80;;;22.10;99.90;;;;;;4998222;28;20488;-57
2023/06/18 08:31:47;;;;;;;8.43;7.73;;;22.10;99.90;;;;;;4997159;28;20477;-57
2023/06/18 08:34:15;;;;;;;8.10;7.60;;;22.30;99.90;;;;;;4996637;28;20497;-57
2023/06/18 08:36:46;;;;;;;8.57;7.80;;;22.30;99.90;;;;;;4997859;28;21045;-57
2023/06/18 08:39:14;;;;;;;9.20;8.50;;;22.30;99.90;;;;;;4996276;28;20539;-56
2023/06/18 08:41:45;;;;;;;8.77;8.17;;;22.30;99.90;;;;;;4997373;28;20492;-57
2023/06/18 08:44:14;;;;;;;9.43;8.63;;;22.30;99.90;;;;;;4995567;28;20937;-57
2023/06/18 08:46:45;;;;;;;9.03;8.40;;;22.30;99.90;;;;;;4998272;28;20938;-56
2023/06/18 08:49:15;;;;;;;8.20;7.70;;;22.20;99.90;;;;;;5000923;28;21125;-57
2023/06/18 08:51:46;;;;;;;9.13;8.47;;;22.20;99.90;;;;;;4994121;28;20586;-57
2023/06/18 08:54:15;;;;;;;9.07;8.33;;;22.30;99.90;;;;;;4993178;28;20490;-57
2023/06/18 08:56:46;;;;;;;8.70;8.10;;;22.40;99.90;;;;;;4998171;28;20555;-57
2023/06/18 08:59:15;;;;;;;8.93;8.33;;;22.40;99.90;;;;;;4999962;28;20537;-56
2023/06/18 09:01:44;;;;;;;8.47;7.90;;;22.50;99.90;;;;;;4961126;28;1091553;-57
2023/06/18 09:04:13;;;;;;;7.90;7.10;;;22.60;99.90;;;;;;4995894;28;20628;-57
2023/06/18 09:06:41;;;;;;;7.83;7.23;;;22.70;99.90;;;;;;4998860;28;20567;-57
2023/06/18 09:09:10;;;;;;;7.80;7.23;;;22.70;99.90;;;;;;4999895;28;20623;-56
2023/06/18 09:11:38;;;;;;;8.07;7.47;;;22.80;99.90;;;;;;4998331;28;21068;-57
2023/06/18 09:14:07;;;;;;;7.40;6.93;;;22.90;99.90;;;;;;4992503;28;20488;-57
2023/06/18 09:16:35;;;;;;;8.07;7.50;;;22.90;99.90;;;;;;4999985;28;20471;-57
2023/06/18 09:19:04;;;;;;;7.13;6.70;;;23.00;99.90;;;;;;4999172;28;21032;-57
2023/06/18 09:21:37;;;;;;;7.47;7.07;;;23.10;99.90;;;;;;4999763;28;21072;-57
2023/06/18 09:24:08;;;;;;;8.03;7.43;;;23.20;99.90;;;;;;4998867;28;20488;-57
2023/06/18 09:26:36;;;;;;;7.43;6.93;;;23.30;99.90;;;;;;4990220;28;20469;-57
2023/06/18 09:29:07;;;;;;;7.63;7.10;;;23.40;99.90;;;;;;4990566;28;20499;-57
2023/06/18 09:31:35;;;;;;;7.07;6.57;;;23.50;99.90;;;;;;4981016;28;20576;-57
2023/06/18 09:34:18;;;;;;;7.30;6.77;;;23.60;99.90;;;;;;4996618;28;20502;-57
2023/06/18 09:36:47;;;;;;;7.20;6.70;;;23.70;99.90;;;;;;4992490;28;20560;-57
2023/06/18 09:39:17;;;;;;;9.93;7.53;;;23.80;99.90;;;;;;5013574;28;20460;-57
2023/06/18 09:41:46;;;;;;;8.37;7.87;;;23.80;99.90;;;;;;5004939;28;21170;-57
2023/06/18 09:44:16;;;;;;;7.37;6.87;;;23.90;99.90;;;;;;4990386;28;20516;-57
2023/06/18 09:46:46;;;;;;;7.00;6.50;;;23.90;99.90;;;;;;4991510;28;20480;-57
2023/06/18 09:49:16;;;;;;;7.20;6.70;;;24.00;99.90;;;;;;4994506;28;20499;-57
2023/06/18 09:51:45;;;;;;;7.23;6.73;;;24.00;99.90;;;;;;4995252;28;20848;-57
2023/06/18 09:54:13;;;;;;;7.00;6.60;;;24.00;99.90;;;;;;5001052;28;21009;-57
2023/06/18 09:56:56;;;;;;;7.47;7.00;;;24.00;99.90;;;;;;4995100;28;20487;-57
2023/06/18 09:59:26;;;;;;;7.53;7.03;;;24.10;99.90;;;;;;4998647;28;20472;-57
2023/06/18 10:01:54;;;;;;;7.97;7.30;;;24.20;99.90;;;;;;4999628;28;20535;-58
2023/06/18 10:04:25;;;;;;;7.90;7.20;;;24.20;99.90;;;;;;4995140;28;20485;-57
2023/06/18 10:06:57;;;;;;;7.90;7.40;;;24.30;99.90;;;;;;4998597;28;20879;-56
2023/06/18 10:09:29;;;;;;;7.47;6.97;;;24.40;99.90;;;;;;5000170;28;20506;-57
2023/06/18 10:11:58;;;;;;;7.27;6.77;;;24.30;99.90;;;;;;4994499;28;20584;-56
2023/06/18 10:14:29;;;;;;;7.63;7.13;;;24.40;99.90;;;;;;4997115;28;20492;-56
2023/06/18 10:17:03;;;;;;;6.73;6.33;;;24.40;99.90;;;;;;4989826;28;20538;-57
2023/06/18 10:19:34;;;;;;;7.73;7.17;;;24.50;99.90;;;;;;4997521;28;20535;-56
2023/06/18 10:22:04;;;;;;;6.93;6.53;;;24.60;99.90;;;;;;4998051;28;20491;-56
2023/06/18 10:24:35;;;;;;;7.20;6.70;;;24.70;99.90;;;;;;4995322;28;20527;-56
2023/06/18 10:27:04;;;;;;;7.00;6.50;;;24.70;99.90;;;;;;4999492;28;20908;-57
2023/06/18 10:29:34;;;;;;;6.70;6.30;;;24.80;99.90;;;;;;4996233;28;20584;-56
2023/06/18 10:32:03;;;;;;;6.63;6.20;;;24.80;99.90;;;;;;4998874;28;20947;-57
2023/06/18 10:34:31;;;;;;;6.10;5.70;;;24.90;99.90;;;;;;4997379;28;20520;-56
2023/06/18 10:37:00;;;;;;;6.27;5.77;;;25.00;99.90;;;;;;5000797;28;20481;-56
2023/06/18 10:39:29;;;;;;;5.97;5.57;;;25.10;99.90;;;;;;4999761;28;20464;-57
2023/06/18 10:42:10;;;;;;;5.83;5.50;;;25.10;99.90;;;;;;4991720;28;20500;-57
2023/06/18 10:44:54;;;;;;;6.00;5.60;;;25.20;99.90;;;;;;4995033;28;20527;-56
2023/06/18 10:47:24;;;;;;;6.60;6.20;;;25.20;99.90;;;;;;4994319;28;20473;-56
2023/06/18 10:50:12;;;;;;;5.93;5.63;;;25.30;99.90;;;;;;5001177;28;20491;-57
2023/06/18 10:52:41;;;;;;;5.83;5.43;;;25.40;99.90;;;;;;4996559;28;20492;-56
2023/06/18 10:55:11;;;;;;;6.33;5.93;;;25.40;99.90;;;;;;4999600;28;20579;-57
2023/06/18 10:57:41;;;;;;;6.77;6.37;;;25.30;99.90;;;;;;5003687;28;20528;-57
2023/06/18 11:00:20;;;;;;;6.77;6.27;;;25.40;99.90;;;;;;5002836;28;20496;-57
2023/06/18 11:02:50;;;;;;;7.00;6.60;;;25.50;99.90;;;;;;4997103;28;20490;-57
2023/06/18 11:05:41;;;;;;;7.10;6.60;;;25.60;99.90;;;;;;4996764;28;21104;-56
2023/06/18 11:08:10;;;;;;;7.67;7.17;;;25.90;99.90;;;;;;5002321;28;20552;-57
2023/06/18 11:10:40;;;;;;;6.97;6.57;;;25.90;99.90;;;;;;5001513;28;21108;-57
2023/06/18 11:13:10;;;;;;;7.07;6.67;;;26.00;99.90;;;;;;4999744;28;20503;-57
2023/06/18 11:15:53;;;;;;;6.80;6.40;;;26.10;99.90;;;;;;5003252;28;20468;-57
2023/06/18 11:18:22;;;;;;;6.37;5.93;;;26.20;99.90;;;;;;5002324;28;20841;-57
2023/06/18 11:20:50;;;;;;;6.50;6.00;;;26.30;99.90;;;;;;4996460;28;20472;-57
2023/06/18 11:23:19;;;;;;;6.57;6.17;;;26.50;98.10;;;;;;4999641;28;20555;-57
2023/06/18 11:25:47;;;;;;;7.30;6.70;;;26.60;97.40;;;;;;4999306;28;20563;-58
2023/06/18 11:28:17;;;;;;;7.37;6.97;;;26.70;99.90;;;;;;5000416;28;20499;-57
2023/06/18 11:30:49;;;;;;;7.10;6.60;;;26.80;99.90;;;;;;4999723;28;21025;-57
2023/06/18 11:33:22;;;;;;;7.37;6.77;;;26.90;97.00;;;;;;4999319;28;20897;-57
2023/06/18 11:35:50;;;;;;;6.83;6.43;;;26.90;92.10;;;;;;5000858;28;21530;-57
2023/06/18 11:38:19;;;;;;;7.47;6.97;;;27.00;99.90;;;;;;4999532;28;20478;-58
2023/06/18 11:40:51;;;;;;;8.27;7.70;;;27.10;99.90;;;;;;5001607;28;20469;-57
2023/06/18 11:43:20;;;;;;;8.03;7.43;;;27.10;93.10;;;;;;5000397;28;20472;-57
2023/06/18 11:45:50;;;;;;;7.43;6.93;;;27.10;94.70;;;;;;4999397;28;20472;-58
2023/06/18 11:48:21;;;;;;;7.63;6.90;;;27.10;96.30;;;;;;5002093;28;20918;-57
2023/06/18 11:50:53;;;;;;;6.57;6.17;;;27.00;91.20;;;;;;5000822;28;20516;-57
2023/06/18 11:53:23;;;;;;;7.17;6.77;;;26.80;95.10;;;;;;4996943;28;20463;-58
2023/06/18 11:55:54;;;;;;;7.40;6.90;;;26.90;95.10;;;;;;4999927;28;20469;-57
2023/06/18 11:58:22;;;;;;;7.83;7.33;;;27.00;95.60;;;;;;4992150;28;20476;-58
2023/06/18 12:00:51;;;;;;;7.63;7.10;;;27.20;92.50;;;;;;4988472;28;20506;-57
2023/06/18 12:03:19;;;;;;;7.43;6.73;;;27.20;90.30;;;;;;4996456;28;20508;-58
2023/06/18 12:05:47;;;;;;;7.27;6.80;;;27.30;83.80;;;;;;4994984;28;20482;-58
2023/06/18 12:08:15;;;;;;;6.60;6.17;;;27.50;90.20;;;;;;5000314;28;20551;-57
2023/06/18 12:10:44;;;;;;;7.40;6.93;;;27.60;90.80;;;;;;4991338;28;20875;-56
2023/06/18 12:13:20;;;;;;;6.30;5.90;;;27.80;88.90;;;;;;4990772;28;20559;-57
2023/06/18 12:15:56;;;;;;;6.83;6.33;;;28.00;83.10;;;;;;4990549;28;20956;-58
2023/06/18 12:18:28;;;;;;;6.30;5.90;;;28.10;84.30;;;;;;5002578;28;20465;-57
2023/06/18 12:20:56;;;;;;;6.63;6.23;;;28.30;78.00;;;;;;4999931;28;20486;-58
2023/06/18 12:23:24;;;;;;;6.60;6.13;;;28.40;73.70;;;;;;4998444;28;20484;-58
2023/06/18 12:25:53;;;;;;;6.63;6.23;;;28.20;74.00;;;;;;4996447;28;20471;-56
2023/06/18 12:28:23;;;;;;;6.00;5.70;;;27.90;71.90;;;;;;4995262;28;20518;-58
2023/06/18 12:30:53;;;;;;;6.00;5.60;;;27.90;75.70;;;;;;4998916;28;20496;-57
2023/06/18 12:33:21;;;;;;;6.20;5.80;;;28.00;75.20;;;;;;4998605;28;20920;-58
2023/06/18 12:35:53;;;;;;;6.80;6.30;;;28.10;70.70;;;;;;4997277;28;20654;-58
2023/06/18 12:38:21;;;;;;;6.90;6.40;;;28.30;69.50;;;;;;4997694;28;20547;-58
2023/06/18 12:40:51;;;;;;;5.93;5.53;;;28.50;69.30;;;;;;4996931;28;20476;-57
2023/06/18 12:43:22;;;;;;;6.77;6.37;;;28.50;73.80;;;;;;4994427;28;20591;-56
2023/06/18 12:45:51;;;;;;;6.87;6.47;;;28.60;67.80;;;;;;4995218;28;20454;-57